Sun River, MT (59483)

8:38 PM MDT on July 26, 2016 (GMT -0600)
MREDI Merja Station | | Change Station

Elev 3665 ft 47.46 °N, 111.71 °W | Updated 40 minutes ago

Smoke
Smoke
73.2 °F
Feels Like 77 °F
N
11.0
Wind Variable Wind from West
Gusts 11.0 mph

Today
High -- | Low -- °F
--% Chance of Precip.
Yesterday
High -- | Low -- °F
Precip. -- in
Pressure 30.02 in
Visibility 10.0 miles
Clouds Few 2800 ft
Scattered Clouds 10000 ft
Heat Index 77 °F
Dew Point 52 °F
Humidity 49%
Rainfall 0.00 in
Snow Depth Not available.
5:58 AM 9:08 PM
Waning Gibbous, 48% visible
METAR KGTF 270153Z 13010KT 10SM FU FEW028 SCT100 21/12 A3009 RMK AO2 WSHFT 0117 LTG DSNT E AND S RAB24E35 TSB13E28 SLP165 P0000 T02060122
Pressure 30.02 in
Visibility 10.0 miles
Clouds Few 2800 ft
Scattered Clouds 10000 ft
Heat Index 77 °F
Dew Point 52 °F
Humidity 49%
Rainfall 0.00 in
Snow Depth Not available.
5:58 AM 9:08 PM
Waning Gibbous, 48% visible
METAR KGTF 270153Z 13010KT 10SM FU FEW028 SCT100 21/12 A3009 RMK AO2 WSHFT 0117 LTG DSNT E AND S RAB24E35 TSB13E28 SLP165 P0000 T02060122

10-Day Weather Forecast

Almanac

Astronomy

Jul. 26, 2016 Rise Set
Actual Time
Civil Twilight
Nautical Twilight
Astronomical Twilight
Moon
Length of Visible Light
Length of Day
Tomorrow will be .
, % of the Moon is Illuminated

Today's Extremes

State Highs State Lows

Community

WunderPhotos

Upload Photos

1,927,779 photos uploaded!

WunderBlog® & News

Nearby

Air Quality

  Air Quality AQ Index Pollutant
Not available.

Snow Depth

Station Depth Elevation

Earthquake Activity

City Distance Mag. Time & Date
Minimum magnitude displayed is 2.5.

Coastal Water Temperatures

Place Temperature

Stations

Nearby Weather Stations

Station Location Temp. Windchill Dew Point Humidity Wind Precip. Elev Updated Type
                   

Watches & Warnings

There are currently no watches in effect.